الصفحة الرئيسية
METAR-TAF:

METAR-TAF

مطار :

نادي, فيجي

دائرة عرض: 17-45S, خط طول: 177-27E, ارتفاع: 13 متر

مراقبة الطقس الحالي

تاريخ ووقت الإصدار 52 دقيقة قبل الساعة 15:00UTC
ريح 5 عقدة من الشمال/الشمال الشرقي
درجة الحرارة 23°درجة مئوية
الرطوبة 94%
ضغط 1012 hPa
الرؤية 10 كم أو أكثر
غيوم متفرقة على ارتفاع 2800 قدم
غيوم مفككة على ارتفاع 5000 قدم

METAR: NFFN 221500Z 03005KT 9999 SCT028 BKN050 23/22 Q1012 NOSIG

زمن: 03:52 (15:52 UTC)

توقعات

تاريخ ووقت الإصدار 4ساعات و 52 دقيقة قبل الساعة 11:00UTC
التوقعات صالحة من22 الساعة 12 UTC إلى 23 الساعة 12 UTC
ريح 5 عقدة من الشرق/الشمال الشرقي
الرؤية 10 كم أو أكثر
غيوم قليلة على ارتفاع 2800 قدم
أصبح
من 22 الساعة 21 UTC إلى 22 الساعة 23 UTC
ريح 10 عقدة من الغرب
أصبح
من 23 الساعة 04 UTC إلى 23 الساعة 06 UTC
ريح 5 عقدة من الشرق

TAF: NFFN 221100Z 2212/2312 07005KT 9999 FEW028 BECMG 2221/2223 28010KT BECMG 2304/2306 08005KT

أرصاد الطقس والتوقعات من أكثر من 4000 مطار (تقارير الطقس للمطار METAR والتنبؤ بالطقس بالمطارTAF).

المحطات المتاحة هي النقط الصفراء والحمراء على الخريطة.

حرك المؤشر فوق النقطة لمعرفة اسم المحطة.

ثم انقر لمعرفة أرصاد وتوقعات الطقس.

لتغيير الخارطة: اضغط على الأزرار الخضراء مع رمز الصليب الأسود للتكبير. على الزر الأخضر مع شرطة للتصغير، أو على الأسهم الخضراء للخرائط المجاورة.


METAR-TAF: